createdAt,value
2023-02-12T00:00:10.038Z,7.63
2023-02-12T00:01:09.997Z,7.69
2023-02-12T00:02:10.047Z,7.69
2023-02-12T00:03:10.120Z,7.69
2023-02-12T00:04:10.019Z,7.68
2023-02-12T00:05:09.937Z,7.53
2023-02-12T00:06:09.919Z,7.64
2023-02-12T00:07:09.835Z,7.64
2023-02-12T00:08:09.861Z,7.50
2023-02-12T00:09:09.840Z,7.52
2023-02-12T00:10:09.820Z,7.61
2023-02-12T00:11:09.782Z,7.67
2023-02-12T00:12:09.781Z,7.64
2023-02-12T00:13:09.792Z,7.53
2023-02-12T00:14:09.782Z,7.60
2023-02-12T00:15:09.743Z,7.52
2023-02-12T00:16:09.868Z,7.68
2023-02-12T00:17:09.743Z,7.58
2023-02-12T00:18:09.721Z,7.63
2023-02-12T00:19:09.738Z,7.64
2023-02-12T00:20:09.691Z,7.63
2023-02-12T00:21:09.678Z,7.58
2023-02-12T00:22:09.669Z,7.63
2023-02-12T00:23:09.659Z,7.53
2023-02-12T00:24:09.661Z,7.58
2023-02-12T00:25:09.631Z,7.64
2023-02-12T00:26:09.719Z,7.52
2023-02-12T00:27:09.631Z,7.67
2023-02-12T00:28:09.642Z,7.63
2023-02-12T00:29:09.644Z,7.63
2023-02-12T00:30:09.581Z,7.63
2023-02-12T00:31:09.770Z,7.61
2023-02-12T00:32:09.593Z,7.46
2023-02-12T00:33:09.537Z,7.55
2023-02-12T00:34:09.649Z,7.49
2023-02-12T00:35:09.553Z,7.50
2023-02-12T00:36:09.516Z,7.55
2023-02-12T00:37:09.510Z,7.50
2023-02-12T00:38:09.480Z,7.53
2023-02-12T00:39:09.588Z,7.50
2023-02-12T00:40:09.522Z,7.55
2023-02-12T00:41:09.461Z,7.53
2023-02-12T00:42:09.540Z,7.48
2023-02-12T00:43:09.460Z,7.46
2023-02-12T00:44:09.467Z,7.48
2023-02-12T00:45:09.435Z,7.53
2023-02-12T00:46:09.434Z,7.50
2023-02-12T00:47:09.392Z,7.55
2023-02-12T00:48:09.378Z,7.49
2023-02-12T00:49:09.361Z,7.50
2023-02-12T00:50:09.353Z,7.52
2023-02-12T00:51:09.365Z,7.50
2023-02-12T00:52:09.376Z,7.49
2023-02-12T00:53:09.498Z,7.52
2023-02-12T00:54:09.489Z,7.48
2023-02-12T00:55:09.449Z,7.53
2023-02-12T00:56:09.504Z,7.48
2023-02-12T00:57:09.451Z,7.35
2023-02-12T00:58:09.460Z,7.48
2023-02-12T00:59:09.421Z,7.49
2023-02-12T01:00:09.467Z,7.52
2023-02-12T01:01:09.488Z,7.46
2023-02-12T01:02:09.395Z,7.48
2023-02-12T01:03:09.217Z,7.53
2023-02-12T01:04:09.384Z,7.50
2023-02-12T01:05:09.383Z,7.46
2023-02-12T01:06:09.370Z,7.53
2023-02-12T01:07:09.266Z,7.52
2023-02-12T01:08:09.266Z,7.50
2023-02-12T01:09:10.191Z,7.50
2023-02-12T01:10:09.340Z,7.46
2023-02-12T01:11:09.160Z,7.45
2023-02-12T01:12:09.269Z,7.45
2023-02-12T01:13:09.325Z,7.50
2023-02-12T01:14:09.299Z,7.48
2023-02-12T01:15:09.266Z,7.49
2023-02-12T01:16:09.564Z,7.35
2023-02-12T01:17:09.266Z,7.43
2023-02-12T01:18:09.439Z,7.39
2023-02-12T01:19:09.213Z,7.49
2023-02-12T01:20:09.155Z,7.48
2023-02-12T01:21:09.166Z,7.46
2023-02-12T01:22:09.128Z,7.50
2023-02-12T01:23:09.012Z,7.53
2023-02-12T01:24:09.128Z,7.43
2023-02-12T01:25:09.135Z,7.48
2023-02-12T01:26:09.067Z,7.40
2023-02-12T01:27:09.071Z,7.40
2023-02-12T01:28:09.109Z,7.39
2023-02-12T01:29:09.056Z,7.46
2023-02-12T01:30:09.108Z,7.39
2023-02-12T01:31:09.141Z,7.40
2023-02-12T01:32:09.057Z,7.46
2023-02-12T01:33:08.887Z,7.43
2023-02-12T01:34:08.904Z,7.40
2023-02-12T01:35:09.032Z,7.43
2023-02-12T01:36:08.962Z,7.39
2023-02-12T01:37:08.953Z,7.46
2023-02-12T01:38:08.962Z,7.25
2023-02-12T01:39:08.968Z,7.35
2023-02-12T01:40:09.045Z,7.25
2023-02-12T01:41:08.942Z,7.24
2023-02-12T01:42:08.978Z,7.35
2023-02-12T01:43:08.758Z,7.25
2023-02-12T01:44:08.760Z,7.32
2023-02-12T01:45:08.741Z,7.31
2023-02-12T01:46:08.764Z,7.32
2023-02-12T01:47:08.735Z,7.27
2023-02-12T01:48:08.722Z,7.31
2023-02-12T01:49:08.719Z,7.28
2023-02-12T01:50:08.699Z,7.31
2023-02-12T01:51:08.708Z,7.23
2023-02-12T01:52:08.660Z,7.30
2023-02-12T01:53:08.640Z,7.25
2023-02-12T01:54:08.732Z,7.25
2023-02-12T01:55:08.737Z,7.32
2023-02-12T01:56:08.835Z,7.32
2023-02-12T01:57:08.768Z,7.17
2023-02-12T01:58:08.636Z,7.27
2023-02-12T01:59:08.790Z,7.27
2023-02-12T02:00:08.586Z,7.24
2023-02-12T02:01:08.773Z,7.23
2023-02-12T02:02:08.914Z,7.15
2023-02-12T02:03:08.739Z,7.12
2023-02-12T02:04:08.711Z,7.12
2023-02-12T02:05:08.732Z,7.10
2023-02-12T02:06:08.570Z,7.13
2023-02-12T02:07:08.541Z,7.13
2023-02-12T02:08:08.635Z,7.10
2023-02-12T02:09:08.658Z,7.09
2023-02-12T02:10:08.583Z,7.10
2023-02-12T02:11:15.796Z,7.16
2023-02-12T02:12:08.611Z,7.12
2023-02-12T02:13:08.545Z,7.12
2023-02-12T02:14:08.570Z,7.09
2023-02-12T02:15:08.482Z,7.09
2023-02-12T02:16:08.578Z,7.13
2023-02-12T02:17:08.548Z,7.17
2023-02-12T02:18:08.555Z,7.09
2023-02-12T02:19:08.545Z,7.06
2023-02-12T02:20:08.501Z,7.07
2023-02-12T02:21:08.416Z,7.06
2023-02-12T02:22:08.353Z,7.10
2023-02-12T02:23:08.310Z,7.10
2023-02-12T02:24:08.313Z,7.09
2023-02-12T02:25:08.455Z,7.07
2023-02-12T02:26:08.371Z,7.06
2023-02-12T02:27:08.425Z,7.12
2023-02-12T02:28:15.332Z,7.09
2023-02-12T02:29:08.246Z,7.07
2023-02-12T02:30:08.236Z,7.13
2023-02-12T02:31:08.371Z,7.15
2023-02-12T02:32:08.352Z,7.13
2023-02-12T02:33:08.178Z,7.09
2023-02-12T02:34:08.190Z,7.13
2023-02-12T02:35:08.184Z,7.10
2023-02-12T02:36:08.177Z,7.06
2023-02-12T02:37:08.191Z,7.15
2023-02-12T02:38:08.130Z,7.07
2023-02-12T02:39:08.132Z,7.07
2023-02-12T02:40:08.134Z,7.09
2023-02-12T02:41:08.104Z,7.10
2023-02-12T02:42:08.124Z,7.15
2023-02-12T02:43:08.074Z,7.13
2023-02-12T02:44:08.060Z,7.13
2023-02-12T02:45:08.070Z,7.23
2023-02-12T02:46:08.069Z,7.21
2023-02-12T02:47:08.079Z,7.10
2023-02-12T02:48:08.038Z,7.20
2023-02-12T02:49:08.014Z,7.12
2023-02-12T02:50:08.029Z,7.13
2023-02-12T02:51:07.989Z,7.12
2023-02-12T02:52:07.997Z,7.10
2023-02-12T02:53:08.007Z,7.13
2023-02-12T02:54:07.958Z,7.07
2023-02-12T02:55:07.946Z,7.09
2023-02-12T02:56:07.941Z,7.13
2023-02-12T02:57:07.937Z,7.12
2023-02-12T02:58:07.930Z,7.13
2023-02-12T02:59:07.917Z,7.10
2023-02-12T03:00:07.891Z,7.12
2023-02-12T03:01:07.931Z,7.09
2023-02-12T03:02:07.889Z,7.09
2023-02-12T03:03:07.937Z,7.12
2023-02-12T03:04:07.868Z,7.25
2023-02-12T03:05:07.852Z,7.15
2023-02-12T03:06:07.833Z,7.10
2023-02-12T03:07:07.843Z,7.12
2023-02-12T03:08:07.796Z,7.09
2023-02-12T03:09:07.833Z,7.16
2023-02-12T03:10:07.810Z,7.20
2023-02-12T03:11:07.769Z,7.13
2023-02-12T03:12:07.779Z,7.13
2023-02-12T03:13:07.744Z,7.10
2023-02-12T03:14:07.759Z,7.12
2023-02-12T03:15:07.736Z,7.10
2023-02-12T03:16:07.731Z,7.12
2023-02-12T03:17:07.712Z,7.10
2023-02-12T03:18:07.680Z,7.15
2023-02-12T03:19:07.682Z,7.13
2023-02-12T03:20:07.685Z,7.05
2023-02-12T03:21:07.638Z,7.15
2023-02-12T03:22:07.664Z,7.12
2023-02-12T03:23:07.648Z,7.06
2023-02-12T03:24:07.635Z,7.13
2023-02-12T03:25:07.663Z,7.10
2023-02-12T03:26:07.593Z,7.13
2023-02-12T03:27:07.602Z,7.15
2023-02-12T03:28:07.588Z,7.06
2023-02-12T03:29:07.550Z,7.07
2023-02-12T03:30:07.545Z,7.07
2023-02-12T03:31:07.631Z,7.15
2023-02-12T03:32:07.541Z,6.97
2023-02-12T03:33:07.515Z,7.02
2023-02-12T03:34:07.502Z,7.05
2023-02-12T03:35:07.497Z,7.03
2023-02-12T03:36:07.482Z,7.12
2023-02-12T03:37:07.486Z,6.98
2023-02-12T03:38:07.521Z,7.03
2023-02-12T03:39:07.513Z,6.97
2023-02-12T03:40:07.453Z,7.07
2023-02-12T03:41:07.458Z,6.98
2023-02-12T03:42:07.437Z,6.99
2023-02-12T03:43:07.416Z,6.99
2023-02-12T03:44:07.409Z,6.95
2023-02-12T03:45:07.413Z,7.05
2023-02-12T03:46:07.413Z,6.99
2023-02-12T03:47:07.380Z,7.02
2023-02-12T03:48:07.356Z,7.03
2023-02-12T03:49:07.349Z,6.97
2023-02-12T03:50:07.319Z,7.03
2023-02-12T03:51:07.312Z,7.07
2023-02-12T03:52:07.345Z,6.92
2023-02-12T03:53:07.294Z,7.03
2023-02-12T03:54:07.298Z,6.97
2023-02-12T03:55:07.306Z,6.94
2023-02-12T03:56:07.277Z,7.02
2023-02-12T03:57:07.325Z,6.99
2023-02-12T03:58:07.243Z,6.99
2023-02-12T03:59:07.224Z,6.95
2023-02-12T04:00:07.215Z,7.02
2023-02-12T04:01:07.334Z,7.06
2023-02-12T04:02:07.311Z,6.99
2023-02-12T04:03:07.187Z,6.95
2023-02-12T04:04:07.206Z,6.95
2023-02-12T04:05:07.158Z,6.99
2023-02-12T04:06:07.158Z,7.06
2023-02-12T04:07:07.174Z,6.94
2023-02-12T04:08:07.128Z,6.89
2023-02-12T04:09:07.200Z,6.94
2023-02-12T04:10:07.106Z,7.05
2023-02-12T04:11:07.080Z,6.95
2023-02-12T04:12:07.082Z,6.97
2023-02-12T04:13:07.051Z,6.88
2023-02-12T04:14:07.039Z,7.05
2023-02-12T04:15:07.074Z,7.07
2023-02-12T04:16:07.031Z,6.95
2023-02-12T04:17:07.041Z,6.99
2023-02-12T04:18:07.000Z,7.06
2023-02-12T04:19:06.982Z,6.95
2023-02-12T04:20:06.978Z,7.06
2023-02-12T04:21:06.970Z,6.95
2023-02-12T04:22:06.977Z,6.97
2023-02-12T04:23:06.958Z,6.97
2023-02-12T04:24:06.969Z,6.98
2023-02-12T04:25:06.998Z,6.94
2023-02-12T04:26:06.950Z,7.02
2023-02-12T04:27:06.954Z,6.94
2023-02-12T04:28:06.933Z,6.95
2023-02-12T04:29:06.897Z,7.02
2023-02-12T04:30:06.872Z,6.97
2023-02-12T04:31:06.975Z,6.88
2023-02-12T04:32:06.873Z,6.89
2023-02-12T04:33:06.828Z,6.92
2023-02-12T04:34:06.840Z,6.92
2023-02-12T04:35:06.845Z,6.88
2023-02-12T04:36:06.814Z,6.92
2023-02-12T04:37:06.800Z,6.89
2023-02-12T04:38:06.792Z,6.94
2023-02-12T04:39:06.767Z,6.88
2023-02-12T04:40:06.766Z,6.94
2023-02-12T04:41:06.756Z,6.94
2023-02-12T04:42:06.765Z,6.92
2023-02-12T04:43:06.746Z,6.91
2023-02-12T04:44:06.714Z,6.92
2023-02-12T04:45:06.717Z,6.91
2023-02-12T04:46:06.795Z,6.88
2023-02-12T04:47:06.733Z,6.89
2023-02-12T04:48:06.684Z,6.89
2023-02-12T04:49:06.647Z,6.92
2023-02-12T04:50:06.651Z,6.92
2023-02-12T04:51:06.655Z,6.89
2023-02-12T04:52:06.643Z,6.89
2023-02-12T04:53:06.622Z,6.89
2023-02-12T04:54:06.603Z,6.97
2023-02-12T04:55:06.606Z,6.92
2023-02-12T04:56:06.591Z,6.84
2023-02-12T04:57:06.611Z,6.91
2023-02-12T04:58:06.579Z,6.89
2023-02-12T04:59:06.585Z,6.88
2023-02-12T05:00:06.581Z,6.91
2023-02-12T05:01:06.618Z,6.87
2023-02-12T05:02:06.518Z,6.92
2023-02-12T05:03:06.498Z,6.88
2023-02-12T05:04:06.482Z,6.91
2023-02-12T05:05:06.582Z,6.88
2023-02-12T05:06:06.513Z,6.89
2023-02-12T05:07:06.491Z,6.87
2023-02-12T05:08:06.455Z,6.89
2023-02-12T05:09:06.433Z,6.89
2023-02-12T05:10:06.489Z,6.95
2023-02-12T05:11:06.435Z,6.99
2023-02-12T05:12:06.412Z,7.03
2023-02-12T05:13:06.417Z,6.97
2023-02-12T05:14:06.388Z,6.98
2023-02-12T05:15:06.352Z,6.87
2023-02-12T05:16:06.500Z,6.97
2023-02-12T05:17:06.421Z,6.94
2023-02-12T05:18:06.325Z,6.97
2023-02-12T05:19:06.316Z,6.97
2023-02-12T05:20:06.330Z,6.89
2023-02-12T05:21:06.286Z,6.97
2023-02-12T05:22:06.291Z,6.89
2023-02-12T05:23:06.275Z,6.94
2023-02-12T05:24:06.270Z,6.91
2023-02-12T05:25:06.278Z,6.97
2023-02-12T05:26:06.303Z,6.94
2023-02-12T05:27:06.317Z,6.98
2023-02-12T05:28:06.216Z,6.89
2023-02-12T05:29:06.196Z,6.95
2023-02-12T05:30:06.221Z,6.91
2023-02-12T05:31:06.324Z,6.92
2023-02-12T05:32:06.245Z,6.89
2023-02-12T05:33:06.188Z,6.89
2023-02-12T05:34:06.145Z,6.85
2023-02-12T05:35:06.157Z,6.88
2023-02-12T05:36:06.129Z,6.92
2023-02-12T05:37:06.161Z,6.97
2023-02-12T05:38:06.110Z,6.91
2023-02-12T05:39:06.094Z,6.92
2023-02-12T05:40:06.120Z,6.91
2023-02-12T05:41:06.095Z,6.88
2023-02-12T05:42:06.073Z,6.91
2023-02-12T05:43:06.055Z,6.94
2023-02-12T05:44:06.038Z,6.91
2023-02-12T05:45:06.030Z,6.88
2023-02-12T05:46:06.060Z,6.88
2023-02-12T05:47:06.015Z,6.94
2023-02-12T05:48:06.023Z,6.92
2023-02-12T05:49:05.975Z,6.92
2023-02-12T05:50:05.970Z,6.91
2023-02-12T05:51:05.944Z,6.97
2023-02-12T05:52:05.941Z,6.98
2023-02-12T05:53:05.951Z,6.94
2023-02-12T05:54:05.952Z,6.88
2023-02-12T05:55:05.917Z,6.91
2023-02-12T05:56:05.903Z,6.88
2023-02-12T05:57:05.891Z,6.94
2023-02-12T05:58:05.886Z,6.94
2023-02-12T05:59:05.894Z,6.95
2023-02-12T06:00:05.866Z,6.94
2023-02-12T06:01:05.838Z,6.92
2023-02-12T06:02:05.858Z,6.95
2023-02-12T06:03:05.850Z,6.92
2023-02-12T06:04:05.879Z,6.89
2023-02-12T06:05:05.792Z,6.97
2023-02-12T06:06:05.785Z,6.92
2023-02-12T06:07:05.768Z,6.92
2023-02-12T06:08:05.849Z,6.87
2023-02-12T06:09:05.763Z,6.85
2023-02-12T06:10:05.760Z,6.84
2023-02-12T06:11:05.754Z,6.89
2023-02-12T06:12:05.715Z,6.81
2023-02-12T06:13:05.716Z,6.88
2023-02-12T06:14:05.692Z,6.80
2023-02-12T06:15:05.701Z,6.89
2023-02-12T06:16:05.703Z,6.87
2023-02-12T06:17:05.651Z,6.84
2023-02-12T06:18:05.655Z,6.77
2023-02-12T06:19:05.696Z,6.84
2023-02-12T06:20:05.668Z,6.84
2023-02-12T06:21:05.634Z,6.77
2023-02-12T06:22:05.602Z,6.85
2023-02-12T06:23:05.638Z,6.80
2023-02-12T06:24:05.643Z,6.80
2023-02-12T06:25:05.553Z,6.87
2023-02-12T06:26:05.557Z,6.77
2023-02-12T06:27:05.561Z,6.85
2023-02-12T06:28:05.715Z,6.81
2023-02-12T06:29:05.522Z,6.79
2023-02-12T06:30:05.521Z,6.81
2023-02-12T06:31:05.638Z,6.87
2023-02-12T06:32:05.592Z,6.84
2023-02-12T06:33:05.504Z,6.79
2023-02-12T06:34:05.505Z,6.74
2023-02-12T06:35:05.457Z,6.79
2023-02-12T06:36:05.432Z,6.80
2023-02-12T06:37:05.459Z,6.80
2023-02-12T06:38:05.428Z,6.89
2023-02-12T06:39:05.443Z,6.84
2023-02-12T06:40:05.421Z,6.80
2023-02-12T06:41:05.395Z,6.89
2023-02-12T06:42:05.380Z,6.79
2023-02-12T06:43:05.409Z,6.79
2023-02-12T06:44:05.373Z,6.80
2023-02-12T06:45:05.373Z,6.77
2023-02-12T06:46:05.325Z,6.79
2023-02-12T06:47:05.337Z,6.84
2023-02-12T06:48:05.305Z,6.85
2023-02-12T06:49:05.318Z,6.84
2023-02-12T06:50:05.302Z,6.84
2023-02-12T06:51:05.277Z,6.85
2023-02-12T06:52:05.291Z,6.89
2023-02-12T06:53:05.252Z,6.85
2023-02-12T06:54:05.238Z,6.92
2023-02-12T06:55:05.248Z,6.79
2023-02-12T06:56:05.246Z,6.85
2023-02-12T06:57:05.203Z,6.87
2023-02-12T06:58:05.195Z,6.85
2023-02-12T06:59:05.205Z,6.88
2023-02-12T07:00:05.170Z,6.88
2023-02-12T07:01:05.267Z,6.88
2023-02-12T07:02:05.148Z,6.85
2023-02-12T07:03:05.136Z,6.92
2023-02-12T07:04:05.161Z,6.88
2023-02-12T07:05:05.117Z,6.92
2023-02-12T07:06:05.137Z,6.85
2023-02-12T07:07:05.090Z,6.94
2023-02-12T07:08:05.078Z,6.87
2023-02-12T07:09:05.078Z,6.84
2023-02-12T07:10:05.081Z,6.92
2023-02-12T07:11:05.097Z,6.91
2023-02-12T07:12:05.059Z,6.92
2023-02-12T07:13:05.024Z,6.87
2023-02-12T07:14:05.024Z,6.92
2023-02-12T07:15:05.004Z,6.91
2023-02-12T07:16:05.000Z,6.97
2023-02-12T07:17:04.977Z,6.81
2023-02-12T07:18:04.984Z,6.88
2023-02-12T07:19:04.957Z,6.91
2023-02-12T07:20:05.149Z,6.94
2023-02-12T07:21:04.927Z,6.97
2023-02-12T07:22:04.949Z,6.98
2023-02-12T07:23:04.965Z,6.92
2023-02-12T07:24:04.906Z,6.95
2023-02-12T07:25:04.882Z,6.92
2023-02-12T07:26:04.905Z,6.91
2023-02-12T07:27:04.891Z,6.94
2023-02-12T07:28:04.895Z,6.92
2023-02-12T07:29:04.838Z,6.89
2023-02-12T07:30:04.830Z,7.05
2023-02-12T07:31:04.947Z,7.02
2023-02-12T07:32:04.836Z,6.95
2023-02-12T07:33:04.829Z,6.98
2023-02-12T07:34:04.800Z,7.06
2023-02-12T07:35:04.798Z,6.97
2023-02-12T07:36:04.782Z,7.02
2023-02-12T07:37:04.751Z,6.99
2023-02-12T07:38:04.761Z,7.02
2023-02-12T07:39:04.747Z,7.10
2023-02-12T07:40:04.736Z,7.03
2023-02-12T07:41:04.730Z,7.13
2023-02-12T07:42:04.696Z,7.07
2023-02-12T07:43:04.691Z,7.12
2023-02-12T07:44:04.669Z,7.10
2023-02-12T07:45:04.676Z,7.10
2023-02-12T07:46:04.671Z,7.09
2023-02-12T07:47:04.643Z,7.15
2023-02-12T07:48:04.622Z,7.23
2023-02-12T07:49:04.636Z,7.24
2023-02-12T07:50:04.602Z,7.25
2023-02-12T07:51:04.595Z,7.24
2023-02-12T07:52:04.576Z,7.24
2023-02-12T07:53:04.587Z,7.17
2023-02-12T07:54:04.577Z,7.24
2023-02-12T07:55:04.573Z,7.23
2023-02-12T07:56:04.574Z,7.30
2023-02-12T07:57:04.540Z,7.25
2023-02-12T07:58:04.541Z,7.27
2023-02-12T07:59:04.505Z,7.30
2023-02-12T08:00:04.493Z,7.21
2023-02-12T08:01:04.476Z,7.35
2023-02-12T08:02:04.580Z,7.34
2023-02-12T08:03:04.474Z,7.28
2023-02-12T08:04:04.650Z,7.28
2023-02-12T08:05:04.470Z,7.25
2023-02-12T08:06:04.453Z,7.35
2023-02-12T08:07:04.423Z,7.27
2023-02-12T08:08:04.414Z,7.27
2023-02-12T08:09:04.393Z,7.32
2023-02-12T08:10:04.496Z,7.31
2023-02-12T08:11:04.368Z,7.30
2023-02-12T08:12:04.364Z,7.34
2023-02-12T08:13:04.349Z,7.43
2023-02-12T08:14:04.354Z,7.48
2023-02-12T08:15:04.320Z,7.42
2023-02-12T08:16:04.394Z,7.43
2023-02-12T08:17:04.349Z,7.43
2023-02-12T08:18:04.287Z,7.43
2023-02-12T08:19:16.606Z,7.34
2023-02-12T08:20:05.273Z,7.39
2023-02-12T08:21:04.295Z,7.42
2023-02-12T08:22:04.246Z,7.42
2023-02-12T08:23:04.243Z,7.42
2023-02-12T08:24:04.224Z,7.43
2023-02-12T08:25:04.212Z,7.45
2023-02-12T08:26:04.219Z,7.42
2023-02-12T08:27:04.200Z,7.37
2023-02-12T08:28:04.181Z,7.46
2023-02-12T08:29:04.170Z,7.45
2023-02-12T08:30:04.178Z,7.50
2023-02-12T08:31:04.215Z,7.40
2023-02-12T08:32:04.280Z,7.48
2023-02-12T08:33:04.112Z,7.49
2023-02-12T08:34:04.110Z,7.46
2023-02-12T08:35:04.124Z,7.57
2023-02-12T08:36:04.087Z,7.57
2023-02-12T08:37:04.096Z,7.53
2023-02-12T08:38:04.062Z,7.46
2023-02-12T08:39:04.048Z,7.52
2023-02-12T08:40:04.041Z,7.46
2023-02-12T08:41:04.152Z,7.60
2023-02-12T08:42:04.080Z,7.52
2023-02-12T08:43:04.003Z,7.57
2023-02-12T08:44:04.011Z,7.60
2023-02-12T08:45:03.984Z,7.63
2023-02-12T08:46:04.064Z,7.50
2023-02-12T08:47:03.957Z,7.64
2023-02-12T08:48:03.974Z,7.60
2023-02-12T08:49:03.933Z,7.60
2023-02-12T08:50:03.922Z,7.67
2023-02-12T08:51:03.914Z,7.60
2023-02-12T08:52:03.896Z,7.60
2023-02-12T08:53:03.910Z,7.67
2023-02-12T08:54:03.928Z,7.71
2023-02-12T08:55:03.866Z,7.69
2023-02-12T08:56:03.857Z,7.61
2023-02-12T08:57:03.852Z,7.71
2023-02-12T08:58:03.851Z,7.68
2023-02-12T08:59:03.846Z,7.63
2023-02-12T09:00:03.818Z,7.71
2023-02-12T09:01:03.877Z,7.69
2023-02-12T09:02:03.811Z,7.71
2023-02-12T09:03:03.800Z,7.85
2023-02-12T09:04:03.767Z,7.77
2023-02-12T09:05:03.778Z,7.75
2023-02-12T09:06:03.733Z,7.74
2023-02-12T09:07:03.731Z,7.82
2023-02-12T09:08:03.717Z,7.82
2023-02-12T09:09:03.729Z,7.87
2023-02-12T09:10:03.711Z,7.77
2023-02-12T09:11:03.684Z,7.85
2023-02-12T09:12:03.682Z,7.82
2023-02-12T09:13:03.651Z,7.82
2023-02-12T09:14:03.689Z,7.95
2023-02-12T09:15:03.645Z,7.89
2023-02-12T09:16:03.623Z,7.82
2023-02-12T09:17:03.710Z,7.95
2023-02-12T09:18:03.611Z,7.93
2023-02-12T09:19:03.595Z,7.95
2023-02-12T09:20:03.585Z,7.93
2023-02-12T09:21:03.570Z,7.95
2023-02-12T09:22:03.626Z,7.93
2023-02-12T09:23:03.549Z,8.01
2023-02-12T09:24:03.612Z,8.07
2023-02-12T09:25:03.760Z,8.05
2023-02-12T09:26:03.530Z,8.08
2023-02-12T09:27:03.510Z,8.04
2023-02-12T09:28:03.545Z,8.02
2023-02-12T09:29:03.488Z,8.16
2023-02-12T09:30:03.500Z,8.15
2023-02-12T09:31:03.557Z,8.11
2023-02-12T09:32:03.466Z,8.19
2023-02-12T09:33:03.461Z,8.23
2023-02-12T09:34:03.454Z,8.22
2023-02-12T09:35:03.426Z,8.23
2023-02-12T09:36:03.419Z,8.20
2023-02-12T09:37:03.395Z,8.16
2023-02-12T09:38:03.392Z,8.19
2023-02-12T09:39:03.395Z,8.16
2023-02-12T09:40:03.353Z,8.19
2023-02-12T09:41:03.342Z,8.16
2023-02-12T09:42:03.350Z,8.18
2023-02-12T09:43:03.335Z,8.16
2023-02-12T09:44:03.313Z,8.20
2023-02-12T09:45:03.322Z,8.23
2023-02-12T09:46:03.357Z,8.28
2023-02-12T09:47:03.275Z,8.19
2023-02-12T09:48:03.272Z,8.18
2023-02-12T09:49:03.268Z,8.18
2023-02-12T09:50:03.272Z,8.18
2023-02-12T09:51:03.228Z,8.15
2023-02-12T09:52:03.223Z,8.16
2023-02-12T09:53:03.212Z,8.18
2023-02-12T09:54:03.213Z,8.20
2023-02-12T09:55:03.191Z,8.23
2023-02-12T09:56:03.177Z,8.15
2023-02-12T09:57:03.163Z,8.29
2023-02-12T09:58:03.153Z,8.28
2023-02-12T09:59:03.166Z,8.43
2023-02-12T10:00:03.160Z,8.52
2023-02-12T10:01:03.114Z,8.47
2023-02-12T10:02:03.146Z,8.44
2023-02-12T10:03:05.333Z,8.47
2023-02-12T10:04:03.122Z,8.47
2023-02-12T10:05:03.220Z,8.53
2023-02-12T10:06:03.076Z,8.53
2023-02-12T10:07:03.052Z,8.48
2023-02-12T10:08:03.074Z,8.62
2023-02-12T10:09:03.034Z,8.53
2023-02-12T10:10:03.019Z,8.58
2023-02-12T10:11:03.013Z,8.61
2023-02-12T10:12:03.026Z,8.56
2023-02-12T10:13:02.992Z,8.55
2023-02-12T10:14:02.996Z,8.56
2023-02-12T10:15:02.981Z,8.65
2023-02-12T10:16:03.031Z,8.61
2023-02-12T10:17:02.978Z,8.62
2023-02-12T10:18:02.953Z,8.74
2023-02-12T10:19:02.948Z,8.76
2023-02-12T10:20:02.933Z,8.77
2023-02-12T10:21:02.917Z,8.76
2023-02-12T10:22:02.887Z,8.79
2023-02-12T10:23:02.879Z,8.77
2023-02-12T10:24:02.866Z,8.87
2023-02-12T10:25:02.910Z,8.80
2023-02-12T10:26:02.851Z,8.95
2023-02-12T10:27:02.834Z,8.96
2023-02-12T10:28:02.860Z,8.91
2023-02-12T10:29:02.827Z,8.95
2023-02-12T10:30:02.798Z,8.92
2023-02-12T10:31:02.875Z,8.91
2023-02-12T10:32:02.803Z,9.10
2023-02-12T10:33:02.838Z,9.13
2023-02-12T10:34:02.789Z,9.14
2023-02-12T10:35:02.738Z,9.24
2023-02-12T10:36:02.726Z,9.29
2023-02-12T10:37:02.721Z,9.38
2023-02-12T10:38:02.709Z,9.43
2023-02-12T10:39:02.709Z,9.40
2023-02-12T10:40:02.688Z,9.42
2023-02-12T10:41:02.709Z,9.31
2023-02-12T10:42:02.672Z,9.20
2023-02-12T10:43:02.667Z,9.29
2023-02-12T10:44:02.666Z,9.36
2023-02-12T10:45:02.625Z,9.39
2023-02-12T10:46:02.698Z,9.48
2023-02-12T10:47:02.624Z,9.40
2023-02-12T10:48:02.587Z,9.48
2023-02-12T10:49:02.579Z,9.48
2023-02-12T10:50:02.598Z,9.51
2023-02-12T10:51:02.568Z,9.51
2023-02-12T10:52:02.576Z,9.48
2023-02-12T10:53:02.528Z,9.50
2023-02-12T10:54:02.941Z,9.54
2023-02-12T10:55:02.513Z,9.48
2023-02-12T10:56:02.500Z,9.47
2023-02-12T10:57:02.500Z,9.39
2023-02-12T10:58:02.471Z,9.50
2023-02-12T10:59:02.458Z,9.46
2023-02-12T11:00:02.452Z,9.39
2023-02-12T11:01:02.457Z,9.32
2023-02-12T11:02:02.460Z,9.40
2023-02-12T11:03:02.428Z,9.31
2023-02-12T11:04:02.409Z,9.38
2023-02-12T11:05:02.436Z,9.33
2023-02-12T11:06:02.424Z,9.39
2023-02-12T11:07:02.392Z,9.48
2023-02-12T11:08:02.364Z,9.50
2023-02-12T11:09:02.349Z,9.50
2023-02-12T11:10:02.339Z,9.53
2023-02-12T11:11:02.323Z,9.58
2023-02-12T11:12:02.332Z,9.51
2023-02-12T11:13:02.300Z,9.50
2023-02-12T11:14:02.295Z,9.51
2023-02-12T11:15:02.314Z,9.64
2023-02-12T11:16:02.736Z,9.61
2023-02-12T11:17:02.263Z,9.64
2023-02-12T11:18:04.417Z,9.64
2023-02-12T11:19:02.244Z,9.61
2023-02-12T11:20:02.222Z,9.61
2023-02-12T11:21:02.227Z,9.58
2023-02-12T11:22:02.220Z,9.60
2023-02-12T11:23:02.197Z,9.60
2023-02-12T11:24:04.343Z,9.72
2023-02-12T11:25:02.174Z,9.60
2023-02-12T11:26:02.155Z,9.54
2023-02-12T11:27:02.163Z,9.48
2023-02-12T11:28:02.230Z,9.54
2023-02-12T11:29:02.285Z,9.53
2023-02-12T11:30:02.147Z,9.56
2023-02-12T11:31:02.219Z,9.53
2023-02-12T11:32:02.193Z,9.54
2023-02-12T11:33:02.078Z,9.53
2023-02-12T11:34:02.094Z,9.48
2023-02-12T11:35:02.064Z,9.50
2023-02-12T11:36:03.425Z,9.54
2023-02-12T11:37:02.087Z,9.48
2023-02-12T11:38:02.044Z,9.50
2023-02-12T11:39:02.012Z,9.48
2023-02-12T11:40:02.014Z,9.42
2023-02-12T11:41:02.006Z,9.48
2023-02-12T11:42:01.977Z,9.50
2023-02-12T11:43:01.966Z,9.56
2023-02-12T11:44:01.953Z,9.48
2023-02-12T11:45:01.938Z,9.46
2023-02-12T11:46:01.977Z,9.53
2023-02-12T11:47:01.930Z,9.51
2023-02-12T11:48:01.934Z,9.53
2023-02-12T11:49:01.940Z,9.51
2023-02-12T11:50:01.945Z,9.48
2023-02-12T11:51:01.888Z,9.53
2023-02-12T11:52:01.938Z,9.51
2023-02-12T11:53:01.873Z,9.54
2023-02-12T11:54:01.881Z,9.48
2023-02-12T11:55:01.829Z,9.50
2023-02-12T11:56:02.178Z,9.54
2023-02-12T11:57:01.817Z,9.53
2023-02-12T11:58:01.820Z,9.51
2023-02-12T11:59:01.804Z,9.53
2023-02-12T12:00:01.775Z,9.53
2023-02-12T12:01:01.756Z,9.61
2023-02-12T12:02:01.798Z,9.61
2023-02-12T12:03:01.788Z,9.60
2023-02-12T12:04:01.748Z,9.54
2023-02-12T12:05:01.713Z,9.51
2023-02-12T12:06:01.703Z,9.43
2023-02-12T12:07:01.691Z,9.46
2023-02-12T12:08:01.705Z,9.35
2023-02-12T12:09:01.671Z,9.43
2023-02-12T12:10:01.697Z,9.35
2023-02-12T12:11:01.647Z,9.42
2023-02-12T12:12:01.662Z,9.46
2023-02-12T12:13:01.624Z,9.33
2023-02-12T12:14:01.620Z,9.48
2023-02-12T12:15:01.605Z,9.33
2023-02-12T12:16:01.636Z,9.40
2023-02-12T12:17:01.576Z,9.43
2023-02-12T12:18:01.587Z,9.42
2023-02-12T12:19:01.564Z,9.38
2023-02-12T12:20:01.579Z,9.39
2023-02-12T12:21:01.534Z,9.32
2023-02-12T12:22:01.521Z,9.33
2023-02-12T12:23:01.509Z,9.29
2023-02-12T12:24:01.498Z,9.33
2023-02-12T12:25:01.513Z,9.20
2023-02-12T12:26:01.509Z,9.17
2023-02-12T12:27:01.467Z,9.20
2023-02-12T12:28:01.554Z,9.18
2023-02-12T12:29:01.458Z,9.24
2023-02-12T12:30:01.456Z,9.23
2023-02-12T12:31:01.483Z,9.33
2023-02-12T12:32:01.500Z,9.29
2023-02-12T12:33:01.402Z,9.33
2023-02-12T12:34:01.384Z,9.24
2023-02-12T12:35:01.386Z,9.20
2023-02-12T12:36:01.407Z,9.20
2023-02-12T12:37:01.350Z,9.20
2023-02-12T12:38:01.350Z,9.24
2023-02-12T12:39:01.360Z,9.24
2023-02-12T12:40:01.333Z,9.14
2023-02-12T12:41:01.376Z,9.23
2023-02-12T12:42:01.325Z,9.24
2023-02-12T12:43:01.326Z,9.17
2023-02-12T12:44:01.277Z,9.17
2023-02-12T12:45:01.266Z,9.24
2023-02-12T12:46:01.297Z,9.29
2023-02-12T12:47:01.279Z,9.20
2023-02-12T12:48:01.240Z,9.17
2023-02-12T12:49:01.234Z,9.13
2023-02-12T12:50:01.206Z,9.13
2023-02-12T12:51:01.197Z,9.17
2023-02-12T12:52:01.212Z,9.17
2023-02-12T12:53:01.174Z,9.14
2023-02-12T12:54:01.161Z,9.10
2023-02-12T12:55:01.150Z,9.13
2023-02-12T12:56:01.135Z,9.14
2023-02-12T12:57:01.150Z,9.11
2023-02-12T12:58:01.143Z,9.14
2023-02-12T12:59:01.118Z,9.14
2023-02-12T13:00:01.125Z,9.18
2023-02-12T13:01:01.152Z,9.23
2023-02-12T13:02:01.140Z,9.23
2023-02-12T13:03:01.058Z,9.18
2023-02-12T13:04:01.043Z,9.08
2023-02-12T13:05:01.068Z,9.14
2023-02-12T13:06:01.030Z,9.15
2023-02-12T13:07:01.040Z,9.10
2023-02-12T13:08:01.012Z,9.10
2023-02-12T13:09:01.058Z,9.15
2023-02-12T13:10:01.005Z,9.13
2023-02-12T13:11:00.972Z,9.17
2023-02-12T13:12:00.971Z,9.24
2023-02-12T13:13:00.969Z,9.21
2023-02-12T13:14:01.048Z,9.24
2023-02-12T13:15:00.929Z,9.18
2023-02-12T13:16:00.920Z,9.21
2023-02-12T13:17:00.934Z,9.17
2023-02-12T13:18:00.905Z,9.23